createdAt,value
2018-12-13T00:01:13.157Z,21.37
2018-12-13T00:03:41.722Z,21.55
2018-12-13T00:06:10.321Z,23.70
2018-12-13T00:08:39.275Z,22.95
2018-12-13T00:11:07.853Z,23.18
2018-12-13T00:13:36.436Z,22.85
2018-12-13T00:16:05.011Z,21.52
2018-12-13T00:18:33.593Z,23.12
2018-12-13T00:21:02.185Z,22.70
2018-12-13T00:23:35.215Z,21.12
2018-12-13T00:26:03.909Z,21.97
2018-12-13T00:28:32.470Z,22.25
2018-12-13T00:31:01.055Z,24.10
2018-12-13T00:33:29.612Z,22.13
2018-12-13T00:35:58.165Z,23.55
2018-12-13T00:38:26.735Z,21.68
2018-12-13T00:40:55.305Z,23.18
2018-12-13T00:43:23.863Z,23.40
2018-12-13T00:45:52.444Z,26.50
2018-12-13T00:48:21.032Z,22.40
2018-12-13T00:50:49.599Z,22.82
2018-12-13T00:53:19.092Z,24.37
2018-12-13T00:55:47.697Z,24.70
2018-12-13T00:58:16.249Z,23.42
2018-12-13T01:00:44.886Z,23.20
2018-12-13T01:03:13.445Z,23.35
2018-12-13T01:05:42.030Z,24.30
2018-12-13T01:08:10.605Z,23.15
2018-12-13T01:10:39.267Z,23.55
2018-12-13T01:13:07.997Z,24.18
2018-12-13T01:15:36.580Z,25.08
2018-12-13T01:18:05.137Z,23.57
2018-12-13T01:20:33.710Z,24.00
2018-12-13T01:23:02.272Z,24.45
2018-12-13T01:25:30.848Z,22.02
2018-12-13T01:27:59.461Z,24.12
2018-12-13T01:30:28.037Z,23.75
2018-12-13T01:32:56.604Z,23.70
2018-12-13T01:35:25.173Z,27.52
2018-12-13T01:37:53.763Z,23.95
2018-12-13T01:40:22.348Z,25.52
2018-12-13T01:42:50.918Z,25.15
2018-12-13T01:45:19.516Z,25.30
2018-12-13T01:47:48.085Z,29.67
2018-12-13T01:50:16.650Z,26.73
2018-12-13T01:52:45.235Z,26.97
2018-12-13T01:55:13.801Z,26.77
2018-12-13T01:57:42.400Z,26.73
2018-12-13T02:00:10.972Z,27.98
2018-12-13T02:02:39.517Z,25.92
2018-12-13T02:05:08.113Z,27.37
2018-12-13T02:07:36.674Z,26.87
2018-12-13T02:10:06.085Z,25.43
2018-12-13T02:12:34.673Z,27.25
2018-12-13T02:15:03.408Z,25.70
2018-12-13T02:17:31.988Z,23.50
2018-12-13T02:20:00.573Z,25.85
2018-12-13T02:22:29.132Z,25.25
2018-12-13T02:24:57.704Z,23.00
2018-12-13T02:27:26.301Z,21.82
2018-12-13T02:29:54.857Z,22.02
2018-12-13T02:32:23.417Z,19.65
2018-12-13T02:34:51.990Z,19.77
2018-12-13T02:37:20.562Z,20.02
2018-12-13T02:39:49.148Z,19.90
2018-12-13T02:42:17.712Z,18.23
2018-12-13T02:44:46.345Z,18.10
2018-12-13T02:47:17.753Z,17.30
2018-12-13T02:49:46.347Z,19.00
2018-12-13T02:52:14.916Z,19.67
2018-12-13T02:54:43.547Z,18.17
2018-12-13T02:57:12.152Z,17.15
2018-12-13T02:59:40.737Z,19.10
2018-12-13T03:02:09.377Z,17.82
2018-12-13T03:04:37.960Z,18.87
2018-12-13T03:07:13.353Z,18.48
2018-12-13T03:09:37.141Z,19.15
2018-12-13T03:12:05.739Z,18.15
2018-12-13T03:14:35.374Z,19.12
2018-12-13T03:17:04.171Z,17.73
2018-12-13T03:19:32.735Z,18.98
2018-12-13T03:22:01.255Z,17.00
2018-12-13T03:24:29.873Z,18.40
2018-12-13T03:26:58.465Z,17.17
2018-12-13T03:29:27.094Z,17.55
2018-12-13T03:31:55.659Z,15.53
2018-12-13T03:34:24.256Z,17.30
2018-12-13T03:36:52.858Z,17.32
2018-12-13T03:39:21.429Z,16.10
2018-12-13T03:41:50.008Z,16.50
2018-12-13T03:44:18.688Z,18.23
2018-12-13T03:46:47.255Z,16.52
2018-12-13T03:49:15.806Z,15.85
2018-12-13T03:51:44.423Z,15.50
2018-12-13T03:54:12.976Z,16.73
2018-12-13T03:56:41.553Z,17.15
2018-12-13T03:59:10.151Z,14.55
2018-12-13T04:01:38.710Z,15.15
2018-12-13T04:04:07.303Z,15.00
2018-12-13T04:06:35.897Z,15.58
2018-12-13T04:09:08.157Z,15.23
2018-12-13T04:11:36.903Z,15.53
2018-12-13T04:14:05.481Z,17.60
2018-12-13T04:16:34.066Z,18.50
2018-12-13T04:19:02.626Z,16.70
2018-12-13T04:21:31.189Z,19.25
2018-12-13T04:23:59.740Z,21.73
2018-12-13T04:26:28.330Z,23.55
2018-12-13T04:28:56.880Z,24.10
2018-12-13T04:31:25.446Z,23.52
2018-12-13T04:33:54.249Z,22.90
2018-12-13T04:36:22.823Z,25.77
2018-12-13T04:38:51.381Z,24.57
2018-12-13T04:41:19.949Z,26.73
2018-12-13T04:43:48.525Z,28.70
2018-12-13T04:46:17.112Z,24.90
2018-12-13T04:48:45.670Z,29.65
2018-12-13T04:51:14.225Z,26.45
2018-12-13T04:53:42.798Z,26.95
2018-12-13T04:56:12.639Z,28.75
2018-12-13T04:58:41.502Z,26.85
2018-12-13T05:01:10.052Z,28.20
2018-12-13T05:03:38.636Z,27.87
2018-12-13T05:06:07.188Z,26.33
2018-12-13T05:08:35.740Z,27.77
2018-12-13T05:11:04.336Z,29.48
2018-12-13T05:13:32.899Z,29.70
2018-12-13T05:16:01.481Z,26.70
2018-12-13T05:18:30.050Z,29.32
2018-12-13T05:20:58.604Z,29.52
2018-12-13T05:23:27.279Z,28.50
2018-12-13T05:25:55.842Z,28.15
2018-12-13T05:28:26.304Z,30.88
2018-12-13T05:30:54.865Z,30.00
2018-12-13T05:33:23.457Z,30.92
2018-12-13T05:35:52.031Z,30.12
2018-12-13T05:38:20.586Z,31.60
2018-12-13T05:40:49.163Z,29.52
2018-12-13T05:43:17.720Z,29.67
2018-12-13T05:45:46.609Z,29.72
2018-12-13T05:48:15.198Z,29.20
2018-12-13T05:50:43.756Z,30.30
2018-12-13T05:53:12.348Z,29.85
2018-12-13T05:55:40.904Z,29.32
2018-12-13T05:58:09.477Z,30.55
2018-12-13T06:00:38.076Z,31.40
2018-12-13T06:03:06.637Z,30.45
2018-12-13T06:05:35.200Z,32.17
2018-12-13T06:08:03.881Z,29.35
2018-12-13T06:10:32.428Z,29.80
2018-12-13T06:13:01.065Z,30.32
2018-12-13T06:15:29.702Z,29.60
2018-12-13T06:17:58.260Z,29.15
2018-12-13T06:20:26.836Z,31.23
2018-12-13T06:22:55.428Z,26.93
2018-12-13T06:25:24.065Z,26.52
2018-12-13T06:27:52.625Z,27.02
2018-12-13T06:30:21.206Z,29.77
2018-12-13T06:32:49.774Z,28.50
2018-12-13T06:35:18.333Z,29.92
2018-12-13T06:37:46.916Z,27.40
2018-12-13T06:40:15.801Z,27.60
2018-12-13T06:42:44.462Z,26.10
2018-12-13T06:45:13.185Z,28.10
2018-12-13T06:47:41.729Z,27.67
2018-12-13T06:50:10.312Z,27.85
2018-12-13T06:52:38.884Z,28.07
2018-12-13T06:55:07.583Z,27.32
2018-12-13T06:57:36.168Z,26.52
2018-12-13T07:00:05.651Z,26.57
2018-12-13T07:02:34.236Z,28.83
2018-12-13T07:05:02.829Z,30.15
2018-12-13T07:07:31.410Z,29.23
2018-12-13T07:10:00.032Z,30.68
2018-12-13T07:12:28.605Z,27.77
2018-12-13T07:14:57.166Z,28.27
2018-12-13T07:17:25.725Z,27.20
2018-12-13T07:19:54.334Z,28.47
2018-12-13T07:22:22.896Z,29.10
2018-12-13T07:24:51.448Z,39.08
2018-12-13T07:27:20.033Z,246.75
2018-12-13T07:29:48.659Z,119.97
2018-12-13T07:32:29.760Z,67.78
2018-12-13T07:35:12.168Z,68.67
2018-12-13T07:37:52.927Z,75.25
2018-12-13T07:40:29.294Z,56.75
2018-12-13T07:43:09.114Z,52.80
2018-12-13T07:45:49.333Z,51.85
2018-12-13T07:48:33.723Z,47.58
2018-12-13T07:51:15.088Z,48.78
2018-12-13T07:53:55.254Z,39.63
2018-12-13T07:56:35.659Z,31.75
2018-12-13T07:59:16.299Z,28.90
2018-12-13T08:01:56.761Z,28.12
2018-12-13T08:04:31.841Z,28.00
2018-12-13T08:07:00.417Z,26.93
2018-12-13T08:09:29.017Z,26.62
2018-12-13T08:11:57.616Z,27.07
2018-12-13T08:14:26.181Z,26.87
2018-12-13T08:17:01.942Z,25.12
2018-12-13T08:19:30.524Z,26.73
2018-12-13T08:21:59.116Z,26.25
2018-12-13T08:24:27.677Z,25.90
2018-12-13T08:26:56.241Z,25.12
2018-12-13T08:29:24.841Z,27.80
2018-12-13T08:31:53.415Z,26.77
2018-12-13T08:34:21.977Z,26.17
2018-12-13T08:36:50.992Z,27.70
2018-12-13T08:39:19.568Z,26.05
2018-12-13T08:41:48.134Z,27.20
2018-12-13T08:44:16.716Z,25.65
2018-12-13T08:46:45.294Z,26.55
2018-12-13T08:49:13.884Z,25.70
2018-12-13T08:51:42.469Z,27.07
2018-12-13T08:54:11.032Z,26.73
2018-12-13T08:56:39.645Z,26.50
2018-12-13T08:59:08.196Z,28.12
2018-12-13T09:01:36.770Z,28.17
2018-12-13T09:04:05.497Z,30.27
2018-12-13T09:06:34.057Z,27.80
2018-12-13T09:09:02.861Z,26.77
2018-12-13T09:11:31.440Z,30.20
2018-12-13T09:14:00.881Z,29.67
2018-12-13T09:16:31.669Z,27.85
2018-12-13T09:19:00.210Z,30.45
2018-12-13T09:21:28.781Z,27.82
2018-12-13T09:23:57.349Z,25.32
2018-12-13T09:26:25.952Z,24.75
2018-12-13T09:28:54.563Z,24.65
2018-12-13T09:31:23.217Z,25.02
2018-12-13T09:33:51.848Z,25.75
2018-12-13T09:36:20.432Z,24.35
2018-12-13T09:38:48.997Z,24.63
2018-12-13T09:41:17.581Z,26.12
2018-12-13T09:43:46.136Z,32.30
2018-12-13T09:46:14.708Z,30.43
2018-12-13T09:48:43.297Z,32.23
2018-12-13T09:51:11.868Z,30.50
2018-12-13T09:53:40.429Z,29.82
2018-12-13T09:56:09.024Z,30.52
2018-12-13T09:58:37.587Z,29.52
2018-12-13T10:01:06.293Z,29.32
2018-12-13T10:03:34.901Z,28.90
2018-12-13T10:06:03.460Z,26.33
2018-12-13T10:08:32.037Z,27.25
2018-12-13T10:11:00.634Z,26.33
2018-12-13T10:13:29.196Z,27.22
2018-12-13T10:15:57.757Z,23.18
2018-12-13T10:18:26.357Z,26.00
2018-12-13T10:20:54.933Z,24.23
2018-12-13T10:23:23.505Z,26.33
2018-12-13T10:25:52.089Z,27.75
2018-12-13T10:28:20.645Z,26.40
2018-12-13T10:30:49.208Z,26.33
2018-12-13T10:33:17.795Z,26.50
2018-12-13T10:35:46.369Z,25.20
2018-12-13T10:38:14.942Z,25.68
2018-12-13T10:40:43.531Z,27.22
2018-12-13T10:43:12.107Z,27.62
2018-12-13T10:45:40.705Z,27.98
2018-12-13T10:48:09.294Z,26.60
2018-12-13T10:50:37.852Z,25.70
2018-12-13T10:53:06.418Z,24.90
2018-12-13T10:55:35.086Z,24.65
2018-12-13T10:58:03.655Z,25.15
2018-12-13T11:01:37.443Z,25.97
2018-12-13T11:04:06.012Z,24.35
2018-12-13T11:06:34.785Z,24.92
2018-12-13T11:09:05.195Z,25.43
2018-12-13T11:11:34.661Z,27.40
2018-12-13T11:14:03.224Z,24.95
2018-12-13T11:16:31.808Z,25.97
2018-12-13T11:19:00.387Z,27.00
2018-12-13T11:21:28.976Z,23.65
2018-12-13T11:23:57.537Z,26.52
2018-12-13T11:26:26.108Z,39.35
2018-12-13T11:30:03.575Z,31.40
2018-12-13T11:32:32.136Z,51.77
2018-12-13T11:35:00.703Z,34.88
2018-12-13T11:37:29.296Z,61.00
2018-12-13T11:39:57.856Z,81.47
2018-12-13T11:42:26.592Z,58.83
2018-12-13T11:44:55.328Z,39.10
2018-12-13T11:47:24.168Z,38.80
2018-12-13T11:49:52.888Z,32.98
2018-12-13T11:52:21.473Z,34.08
2018-12-13T11:54:50.040Z,35.25
2018-12-13T11:57:18.692Z,32.40
2018-12-13T11:59:47.264Z,32.63
2018-12-13T12:02:15.870Z,30.65
2018-12-13T12:04:44.559Z,26.95
2018-12-13T12:07:13.121Z,27.22
2018-12-13T12:09:41.680Z,26.70
2018-12-13T12:12:10.270Z,28.25
2018-12-13T12:14:38.824Z,28.47
2018-12-13T12:17:07.405Z,27.62
2018-12-13T12:19:35.989Z,28.55
2018-12-13T12:22:04.696Z,31.60
2018-12-13T12:24:33.276Z,27.67
2018-12-13T12:27:01.836Z,27.75
2018-12-13T12:29:30.400Z,27.73
2018-12-13T12:31:58.988Z,27.15
2018-12-13T12:34:27.556Z,28.30
2018-12-13T12:36:56.137Z,27.20
2018-12-13T12:39:24.733Z,26.20
2018-12-13T12:41:53.294Z,26.95
2018-12-13T12:44:21.856Z,25.77
2018-12-13T12:46:50.440Z,29.85
2018-12-13T12:49:18.996Z,28.20
2018-12-13T12:51:47.573Z,34.55
2018-12-13T12:54:16.161Z,33.05
2018-12-13T12:56:44.749Z,29.05
2018-12-13T12:59:13.339Z,29.70
2018-12-13T13:01:44.866Z,31.02
2018-12-13T13:04:13.485Z,28.83
2018-12-13T13:06:42.056Z,30.57
2018-12-13T13:09:10.625Z,29.65
2018-12-13T13:11:39.209Z,29.40
2018-12-13T13:14:07.777Z,29.10
2018-12-13T13:16:36.436Z,29.15
2018-12-13T13:19:05.040Z,31.02
2018-12-13T13:21:33.632Z,32.63
2018-12-13T13:24:02.225Z,31.85
2018-12-13T13:26:31.205Z,33.67
2018-12-13T13:28:59.765Z,31.65
2018-12-13T13:31:28.344Z,31.65
2018-12-13T13:33:56.917Z,29.67
2018-12-13T13:36:25.609Z,29.85
2018-12-13T13:38:54.688Z,29.00
2018-12-13T13:41:23.332Z,29.90
2018-12-13T13:43:51.928Z,30.05
2018-12-13T13:46:20.448Z,30.52
2018-12-13T13:48:49.052Z,32.05
2018-12-13T13:51:17.785Z,30.17
2018-12-13T13:53:46.341Z,30.50
2018-12-13T13:56:14.945Z,33.63
2018-12-13T13:58:43.505Z,30.32
2018-12-13T14:01:12.081Z,30.08
2018-12-13T14:03:40.700Z,30.75
2018-12-13T14:06:09.381Z,31.48
2018-12-13T14:08:37.945Z,28.85
2018-12-13T14:11:06.548Z,27.98
2018-12-13T14:13:35.124Z,27.98
2018-12-13T14:16:03.693Z,27.82
2018-12-13T14:18:32.279Z,27.30
2018-12-13T14:21:00.848Z,25.97
2018-12-13T14:23:29.420Z,24.77
2018-12-13T14:25:58.025Z,26.37
2018-12-13T14:28:26.595Z,25.82
2018-12-13T14:30:55.176Z,28.17
2018-12-13T14:33:23.768Z,26.57
2018-12-13T14:35:52.838Z,27.22
2018-12-13T14:38:21.424Z,28.55
2018-12-13T14:40:50.006Z,37.63
2018-12-13T14:43:18.585Z,37.55
2018-12-13T14:45:47.274Z,40.80
2018-12-13T14:48:15.858Z,40.83
2018-12-13T14:50:44.424Z,38.67
2018-12-13T14:53:12.997Z,36.73
2018-12-13T14:55:48.045Z,34.58
2018-12-13T14:58:16.620Z,90.38
2018-12-13T15:00:45.181Z,64.82
2018-12-13T15:03:13.769Z,52.75
2018-12-13T15:05:42.349Z,47.40
2018-12-13T15:08:10.881Z,47.00
2018-12-13T15:10:39.501Z,47.08
2018-12-13T15:13:08.075Z,41.85
2018-12-13T15:15:36.676Z,39.60
2018-12-13T15:18:05.244Z,37.83
2018-12-13T15:20:33.821Z,37.15
2018-12-13T15:23:02.470Z,32.53
2018-12-13T15:25:31.033Z,35.63
2018-12-13T15:27:59.599Z,35.73
2018-12-13T15:30:28.180Z,35.33
2018-12-13T15:32:56.751Z,33.60
2018-12-13T15:35:25.344Z,31.62
2018-12-13T15:37:53.939Z,30.00
2018-12-13T15:40:22.488Z,31.85
2018-12-13T15:42:51.102Z,30.43
2018-12-13T15:45:20.125Z,34.90
2018-12-13T15:47:48.987Z,32.90
2018-12-13T15:50:17.556Z,37.30
2018-12-13T15:52:46.132Z,34.73
2018-12-13T15:55:14.749Z,30.27
2018-12-13T15:57:43.301Z,29.27
2018-12-13T16:00:12.011Z,29.15
2018-12-13T16:02:40.608Z,25.52
2018-12-13T16:05:09.207Z,27.30
2018-12-13T16:07:37.789Z,24.90
2018-12-13T16:10:06.729Z,25.27
2018-12-13T16:12:35.300Z,23.25
2018-12-13T16:15:04.449Z,23.67
2018-12-13T16:17:33.069Z,25.02
2018-12-13T16:20:01.677Z,23.25
2018-12-13T16:22:30.244Z,24.23
2018-12-13T16:24:58.852Z,23.90
2018-12-13T16:27:27.650Z,22.80
2018-12-13T16:29:56.448Z,23.00
2018-12-13T16:32:25.023Z,22.60
2018-12-13T16:34:53.583Z,23.45
2018-12-13T16:37:22.176Z,21.25
2018-12-13T16:39:50.757Z,21.33
2018-12-13T16:42:19.340Z,21.10
2018-12-13T16:44:47.917Z,19.95
2018-12-13T16:47:16.445Z,21.02
2018-12-13T16:49:45.060Z,21.48
2018-12-13T16:52:17.593Z,20.95
2018-12-13T16:54:46.189Z,20.57
2018-12-13T16:57:14.765Z,20.75
2018-12-13T16:59:43.335Z,22.07
2018-12-13T17:02:11.939Z,20.55
2018-12-13T17:04:40.580Z,21.23
2018-12-13T17:07:09.158Z,20.95
2018-12-13T17:09:37.713Z,21.57
2018-12-13T17:12:06.302Z,20.50
2018-12-13T17:14:34.924Z,21.25
2018-12-13T17:17:03.521Z,22.48
2018-12-13T17:19:38.832Z,21.35
2018-12-13T17:22:07.430Z,22.10
2018-12-13T17:24:35.994Z,21.82
2018-12-13T17:27:04.568Z,22.67
2018-12-13T17:29:33.163Z,22.10
2018-12-13T17:32:01.729Z,23.15
2018-12-13T17:34:30.325Z,22.98
2018-12-13T17:36:58.896Z,22.52
2018-12-13T17:39:27.458Z,22.65
2018-12-13T17:41:56.068Z,23.80
2018-12-13T17:44:24.629Z,22.05
2018-12-13T17:46:53.197Z,22.93
2018-12-13T17:49:21.804Z,22.45
2018-12-13T17:51:50.380Z,22.20
2018-12-13T17:54:18.964Z,24.57
2018-12-13T17:56:47.544Z,24.15
2018-12-13T17:59:16.210Z,24.67
2018-12-13T18:01:45.137Z,26.45
2018-12-13T18:04:13.707Z,29.30
2018-12-13T18:06:42.324Z,29.90
2018-12-13T18:09:12.616Z,29.75
2018-12-13T18:11:41.134Z,35.75
2018-12-13T18:14:09.756Z,29.67
2018-12-13T18:16:43.383Z,28.80
2018-12-13T18:19:09.175Z,28.05
2018-12-13T18:21:37.750Z,29.98
2018-12-13T18:24:06.332Z,36.08
2018-12-13T18:26:34.930Z,64.67
2018-12-13T18:29:03.548Z,69.97
2018-12-13T18:31:32.119Z,49.13
2018-12-13T18:34:00.701Z,39.15
2018-12-13T18:36:29.234Z,36.70
2018-12-13T18:38:57.857Z,33.73
2018-12-13T18:41:26.463Z,36.15
2018-12-13T18:43:55.065Z,40.17
2018-12-13T18:46:23.692Z,35.90
2018-12-13T18:48:52.266Z,29.45
2018-12-13T18:51:21.062Z,27.37
2018-12-13T18:53:49.785Z,26.10
2018-12-13T18:56:18.392Z,30.45
2018-12-13T18:58:53.261Z,27.52
2018-12-13T19:01:21.948Z,24.80
2018-12-13T19:03:50.528Z,22.98
2018-12-13T19:06:19.105Z,22.62
2018-12-13T19:08:47.697Z,24.05
2018-12-13T19:11:16.407Z,24.45
2018-12-13T19:13:44.963Z,24.63
2018-12-13T19:16:13.944Z,24.67
2018-12-13T19:18:42.513Z,24.07
2018-12-13T19:21:11.089Z,23.90
2018-12-13T19:23:39.694Z,25.75
2018-12-13T19:26:08.263Z,26.42
2018-12-13T19:28:36.841Z,27.90
2018-12-13T19:31:05.420Z,25.08
2018-12-13T19:33:33.991Z,23.80
2018-12-13T19:36:02.565Z,25.32
2018-12-13T19:38:31.168Z,25.62
2018-12-13T19:40:59.756Z,27.35
2018-12-13T19:43:28.328Z,25.23
2018-12-13T19:45:56.907Z,28.65
2018-12-13T19:48:25.477Z,25.77
2018-12-13T19:50:54.045Z,27.10
2018-12-13T19:53:22.878Z,27.20
2018-12-13T19:55:51.431Z,27.13
2018-12-13T19:58:21.824Z,25.90
2018-12-13T20:00:50.405Z,25.97
2018-12-13T20:03:18.972Z,24.50
2018-12-13T20:05:47.576Z,25.25
2018-12-13T20:08:16.136Z,25.35
2018-12-13T20:10:44.716Z,27.48
2018-12-13T20:13:13.284Z,26.62
2018-12-13T20:15:41.837Z,25.00
2018-12-13T20:18:10.377Z,23.95
2018-12-13T20:20:38.996Z,24.55
2018-12-13T20:23:07.659Z,23.85
2018-12-13T20:25:36.260Z,24.20
2018-12-13T20:28:04.877Z,24.25
2018-12-13T20:30:33.509Z,23.57
2018-12-13T20:33:02.072Z,22.27
2018-12-13T20:35:30.684Z,22.45
2018-12-13T20:37:59.882Z,19.10
2018-12-13T20:40:40.383Z,19.12
2018-12-13T20:43:23.523Z,18.95
2018-12-13T20:45:59.749Z,18.42
2018-12-13T20:48:41.766Z,18.02
2018-12-13T20:51:22.305Z,17.40
2018-12-13T20:54:03.570Z,16.65
2018-12-13T20:56:44.159Z,17.60
2018-12-13T20:59:26.573Z,18.17
2018-12-13T21:02:06.559Z,17.15
2018-12-13T21:04:47.184Z,15.65
2018-12-13T21:07:21.468Z,15.95
2018-12-13T21:09:50.214Z,17.30
2018-12-13T21:12:19.054Z,16.70
2018-12-13T21:14:47.769Z,14.25
2018-12-13T21:17:16.355Z,14.68
2018-12-13T21:19:44.924Z,15.63
2018-12-13T21:22:13.826Z,13.35
2018-12-13T21:24:42.506Z,14.00
2018-12-13T21:27:11.064Z,13.72
2018-12-13T21:29:39.649Z,13.93
2018-12-13T21:32:08.369Z,14.85
2018-12-13T21:34:36.949Z,13.80
2018-12-13T21:37:05.577Z,14.87
2018-12-13T21:39:34.189Z,12.45
2018-12-13T21:42:03.829Z,12.33
2018-12-13T21:44:39.148Z,12.25
2018-12-13T21:47:07.716Z,11.03
2018-12-13T21:49:36.288Z,11.33
2018-12-13T21:52:05.220Z,12.20
2018-12-13T21:54:33.821Z,12.65
2018-12-13T21:57:02.724Z,12.47
2018-12-13T21:59:31.296Z,11.90
2018-12-13T22:01:59.912Z,12.80
2018-12-13T22:04:28.625Z,12.70
2018-12-13T22:06:57.261Z,12.18
2018-12-13T22:09:25.817Z,11.45
2018-12-13T22:11:54.420Z,11.28
2018-12-13T22:14:23.028Z,11.80
2018-12-13T22:16:51.592Z,11.15
2018-12-13T22:19:20.185Z,10.03
2018-12-13T22:21:48.756Z,10.88
2018-12-13T22:24:17.521Z,10.98
2018-12-13T22:26:46.128Z,10.40
2018-12-13T22:29:15.037Z,11.03
2018-12-13T22:31:43.761Z,10.43
2018-12-13T22:34:13.291Z,11.33
2018-12-13T22:36:42.245Z,10.28
2018-12-13T22:39:10.817Z,10.55
2018-12-13T22:41:39.367Z,10.88
2018-12-13T22:44:07.964Z,9.90
2018-12-13T22:46:36.541Z,11.78
2018-12-13T22:49:05.140Z,10.70
2018-12-13T22:51:33.701Z,11.38
2018-12-13T22:54:02.383Z,9.73
2018-12-13T22:56:30.981Z,10.05
2018-12-13T22:58:59.541Z,10.35
2018-12-13T23:01:30.014Z,11.05
2018-12-13T23:03:58.613Z,10.88
2018-12-13T23:06:27.581Z,10.08
2018-12-13T23:08:56.165Z,11.15
2018-12-13T23:11:24.744Z,10.40
2018-12-13T23:13:53.584Z,10.63
2018-12-13T23:16:22.185Z,11.28
2018-12-13T23:18:51.187Z,11.00
2018-12-13T23:21:19.781Z,11.10
2018-12-13T23:23:48.353Z,10.30
2018-12-13T23:26:16.926Z,10.55
2018-12-13T23:28:45.491Z,10.63
2018-12-13T23:31:14.070Z,10.93
2018-12-13T23:33:42.809Z,9.50
2018-12-13T23:36:11.722Z,10.48
2018-12-13T23:38:40.292Z,10.50
2018-12-13T23:41:08.869Z,10.80
2018-12-13T23:43:37.448Z,11.20
2018-12-13T23:46:06.035Z,9.98
2018-12-13T23:48:34.600Z,10.18
2018-12-13T23:51:03.181Z,9.43
2018-12-13T23:53:32.098Z,10.15
2018-12-13T23:56:00.893Z,9.33
2018-12-13T23:58:29.720Z,9.35
